Christchurch, New Zealand
Current Conditions -  °F | °C
As of 10:30 AM on Friday 19 Dec 2014 (Local Time) from NZCH Reporting Station
Clear Clear  
Wind Chill: 73°   Ceiling: Unl
Heat Index: 73°   Visibility: 6mi
Dew Point: 57°   Wind: 10mph
Humidity: 57%   Direction: 80°E
Pressure: 29.88"   Gusts: NA
Location:  43.53°S, 172.64°E
Report Text: NZCH 182230Z AUTO 08009KT 050V120 9999 NCD 23/14 Q1012 NOSIG
Loading
Personal Weather Stations






























Interactive Weather Map New forecast layout! Learn more

10-Day Weather Forecast

Advertisements
Track Severe Weather on mobile